sensor_id;sensor_type;location;lat;lon;timestamp;temperature;humidity
19031;DHT22;9648;51.130;13.978;2022-10-15T00:00:07;12.50;99.90
19031;DHT22;9648;51.130;13.978;2022-10-15T00:02:36;12.60;99.90
19031;DHT22;9648;51.130;13.978;2022-10-15T00:05:03;12.60;99.90
19031;DHT22;9648;51.130;13.978;2022-10-15T00:07:30;12.60;99.90
19031;DHT22;9648;51.130;13.978;2022-10-15T00:09:57;12.60;99.90
19031;DHT22;9648;51.130;13.978;2022-10-15T00:12:23;12.60;99.90
19031;DHT22;9648;51.130;13.978;2022-10-15T00:14:50;12.60;99.90
19031;DHT22;9648;51.130;13.978;2022-10-15T00:17:17;12.60;99.90
19031;DHT22;9648;51.130;13.978;2022-10-15T00:19:45;12.60;99.90
19031;DHT22;9648;51.130;13.978;2022-10-15T00:22:12;12.60;99.90
19031;DHT22;9648;51.130;13.978;2022-10-15T00:24:39;12.60;99.90
19031;DHT22;9648;51.130;13.978;2022-10-15T00:27:06;12.70;99.90
19031;DHT22;9648;51.130;13.978;2022-10-15T00:29:34;12.60;99.90
19031;DHT22;9648;51.130;13.978;2022-10-15T00:32:00;12.70;99.90
19031;DHT22;9648;51.130;13.978;2022-10-15T00:34:27;12.70;99.90
19031;DHT22;9648;51.130;13.978;2022-10-15T00:36:56;12.70;99.90
19031;DHT22;9648;51.130;13.978;2022-10-15T00:39:23;12.70;99.90
19031;DHT22;9648;51.130;13.978;2022-10-15T00:41:50;12.60;99.90
19031;DHT22;9648;51.130;13.978;2022-10-15T00:44:45;12.60;99.90
19031;DHT22;9648;51.130;13.978;2022-10-15T00:47:16;12.60;99.90
19031;DHT22;9648;51.130;13.978;2022-10-15T00:49:46;12.60;99.90
19031;DHT22;9648;51.130;13.978;2022-10-15T00:52:18;12.60;99.90
19031;DHT22;9648;51.130;13.978;2022-10-15T00:54:50;12.60;99.90
19031;DHT22;9648;51.130;13.978;2022-10-15T00:57:18;12.60;99.90
19031;DHT22;9648;51.130;13.978;2022-10-15T00:59:49;12.60;99.90
19031;DHT22;9648;51.130;13.978;2022-10-15T01:02:19;12.60;99.90
19031;DHT22;9648;51.130;13.978;2022-10-15T01:04:47;12.60;99.90
19031;DHT22;9648;51.130;13.978;2022-10-15T01:07:16;12.60;99.90
19031;DHT22;9648;51.130;13.978;2022-10-15T01:09:43;12.60;99.90
19031;DHT22;9648;51.130;13.978;2022-10-15T01:12:18;12.60;99.90
19031;DHT22;9648;51.130;13.978;2022-10-15T01:14:57;12.50;99.90
19031;DHT22;9648;51.130;13.978;2022-10-15T01:17:33;12.50;99.90
19031;DHT22;9648;51.130;13.978;2022-10-15T01:20:36;12.40;99.90
19031;DHT22;9648;51.130;13.978;2022-10-15T01:23:37;12.40;99.90
19031;DHT22;9648;51.130;13.978;2022-10-15T01:26:25;12.40;99.90
19031;DHT22;9648;51.130;13.978;2022-10-15T01:29:05;12.40;99.90
19031;DHT22;9648;51.130;13.978;2022-10-15T01:31:42;12.40;99.90
19031;DHT22;9648;51.130;13.978;2022-10-15T01:34:14;12.40;99.90
19031;DHT22;9648;51.130;13.978;2022-10-15T01:36:49;12.30;99.90
19031;DHT22;9648;51.130;13.978;2022-10-15T01:39:21;12.40;99.90
19031;DHT22;9648;51.130;13.978;2022-10-15T01:41:54;12.40;99.90
19031;DHT22;9648;51.130;13.978;2022-10-15T01:44:28;12.40;99.90
19031;DHT22;9648;51.130;13.978;2022-10-15T01:47:02;12.40;99.90
19031;DHT22;9648;51.130;13.978;2022-10-15T01:49:33;12.40;99.90
19031;DHT22;9648;51.130;13.978;2022-10-15T01:52:05;12.40;99.90
19031;DHT22;9648;51.130;13.978;2022-10-15T01:54:33;12.40;99.90
19031;DHT22;9648;51.130;13.978;2022-10-15T01:57:02;12.30;99.90
19031;DHT22;9648;51.130;13.978;2022-10-15T01:59:31;12.30;99.90
19031;DHT22;9648;51.130;13.978;2022-10-15T02:02:00;12.30;99.90
19031;DHT22;9648;51.130;13.978;2022-10-15T02:04:28;12.30;99.90
19031;DHT22;9648;51.130;13.978;2022-10-15T02:07:01;12.20;99.90
19031;DHT22;9648;51.130;13.978;2022-10-15T02:09:37;12.20;99.90
19031;DHT22;9648;51.130;13.978;2022-10-15T02:12:12;12.20;99.90
19031;DHT22;9648;51.130;13.978;2022-10-15T02:14:47;12.20;99.90
19031;DHT22;9648;51.130;13.978;2022-10-15T02:17:26;12.10;99.90
19031;DHT22;9648;51.130;13.978;2022-10-15T02:20:00;12.10;99.90
19031;DHT22;9648;51.130;13.978;2022-10-15T02:22:34;12.20;99.90
19031;DHT22;9648;51.130;13.978;2022-10-15T02:25:05;12.20;99.90
19031;DHT22;9648;51.130;13.978;2022-10-15T02:27:33;12.20;99.90
19031;DHT22;9648;51.130;13.978;2022-10-15T02:30:02;12.20;99.90
19031;DHT22;9648;51.130;13.978;2022-10-15T02:32:34;12.20;99.90
19031;DHT22;9648;51.130;13.978;2022-10-15T02:35:06;12.20;99.90
19031;DHT22;9648;51.130;13.978;2022-10-15T02:37:34;12.20;99.90
19031;DHT22;9648;51.130;13.978;2022-10-15T02:40:03;12.20;99.90
19031;DHT22;9648;51.130;13.978;2022-10-15T02:42:30;12.20;99.90
19031;DHT22;9648;51.130;13.978;2022-10-15T02:44:57;12.20;99.90
19031;DHT22;9648;51.130;13.978;2022-10-15T02:47:24;12.20;99.90
19031;DHT22;9648;51.130;13.978;2022-10-15T02:49:52;12.20;99.90
19031;DHT22;9648;51.130;13.978;2022-10-15T02:52:19;12.20;99.90
19031;DHT22;9648;51.130;13.978;2022-10-15T02:54:45;12.20;99.90
19031;DHT22;9648;51.130;13.978;2022-10-15T02:57:12;12.10;99.90
19031;DHT22;9648;51.130;13.978;2022-10-15T02:59:39;12.10;99.90
19031;DHT22;9648;51.130;13.978;2022-10-15T03:02:06;12.10;99.90
19031;DHT22;9648;51.130;13.978;2022-10-15T03:04:33;12.10;99.90
19031;DHT22;9648;51.130;13.978;2022-10-15T03:07:01;12.10;99.90
19031;DHT22;9648;51.130;13.978;2022-10-15T03:09:28;12.10;99.90
19031;DHT22;9648;51.130;13.978;2022-10-15T03:11:55;12.20;99.90
19031;DHT22;9648;51.130;13.978;2022-10-15T03:14:22;12.10;99.90
19031;DHT22;9648;51.130;13.978;2022-10-15T03:16:48;12.10;99.90
19031;DHT22;9648;51.130;13.978;2022-10-15T03:19:18;12.10;99.90
19031;DHT22;9648;51.130;13.978;2022-10-15T03:21:45;12.20;99.90
19031;DHT22;9648;51.130;13.978;2022-10-15T03:24:13;12.20;99.90
19031;DHT22;9648;51.130;13.978;2022-10-15T03:26:40;12.20;99.90
19031;DHT22;9648;51.130;13.978;2022-10-15T03:29:07;12.20;99.90
19031;DHT22;9648;51.130;13.978;2022-10-15T03:31:34;12.30;99.90
19031;DHT22;9648;51.130;13.978;2022-10-15T03:34:00;12.30;99.90
19031;DHT22;9648;51.130;13.978;2022-10-15T03:36:27;12.30;99.90
19031;DHT22;9648;51.130;13.978;2022-10-15T03:38:54;12.30;99.90
19031;DHT22;9648;51.130;13.978;2022-10-15T03:41:22;12.30;99.90
19031;DHT22;9648;51.130;13.978;2022-10-15T03:43:49;12.30;99.90
19031;DHT22;9648;51.130;13.978;2022-10-15T03:46:16;12.30;99.90
19031;DHT22;9648;51.130;13.978;2022-10-15T03:48:43;12.30;99.90
19031;DHT22;9648;51.130;13.978;2022-10-15T03:51:10;12.30;99.90
19031;DHT22;9648;51.130;13.978;2022-10-15T03:53:36;12.30;99.90
19031;DHT22;9648;51.130;13.978;2022-10-15T03:56:04;12.30;99.90
19031;DHT22;9648;51.130;13.978;2022-10-15T03:58:32;12.30;99.90
19031;DHT22;9648;51.130;13.978;2022-10-15T04:00:59;12.30;99.90
19031;DHT22;9648;51.130;13.978;2022-10-15T04:03:26;12.30;99.90
19031;DHT22;9648;51.130;13.978;2022-10-15T04:05:53;12.20;99.90
19031;DHT22;9648;51.130;13.978;2022-10-15T04:08:20;12.20;99.90
19031;DHT22;9648;51.130;13.978;2022-10-15T04:10:46;12.20;99.90
19031;DHT22;9648;51.130;13.978;2022-10-15T04:13:13;12.30;99.90
19031;DHT22;9648;51.130;13.978;2022-10-15T04:15:41;12.30;99.90
19031;DHT22;9648;51.130;13.978;2022-10-15T04:18:08;12.30;99.90
19031;DHT22;9648;51.130;13.978;2022-10-15T04:20:36;12.30;99.90
19031;DHT22;9648;51.130;13.978;2022-10-15T04:23:03;12.30;99.90
19031;DHT22;9648;51.130;13.978;2022-10-15T04:25:29;12.30;99.90
19031;DHT22;9648;51.130;13.978;2022-10-15T04:27:56;12.30;99.90
19031;DHT22;9648;51.130;13.978;2022-10-15T04:30:23;12.30;99.90
19031;DHT22;9648;51.130;13.978;2022-10-15T04:32:52;12.30;99.90
19031;DHT22;9648;51.130;13.978;2022-10-15T04:35:19;12.30;99.90
19031;DHT22;9648;51.130;13.978;2022-10-15T04:37:46;12.30;99.90
19031;DHT22;9648;51.130;13.978;2022-10-15T04:40:13;12.30;99.90
19031;DHT22;9648;51.130;13.978;2022-10-15T04:42:40;12.30;99.90
19031;DHT22;9648;51.130;13.978;2022-10-15T04:45:08;12.30;99.90
19031;DHT22;9648;51.130;13.978;2022-10-15T04:47:34;12.30;99.90
19031;DHT22;9648;51.130;13.978;2022-10-15T04:50:03;12.30;99.90
19031;DHT22;9648;51.130;13.978;2022-10-15T04:52:30;12.30;99.90
19031;DHT22;9648;51.130;13.978;2022-10-15T04:54:57;12.30;99.90
19031;DHT22;9648;51.130;13.978;2022-10-15T04:57:24;12.30;99.90
19031;DHT22;9648;51.130;13.978;2022-10-15T04:59:51;12.30;99.90
19031;DHT22;9648;51.130;13.978;2022-10-15T05:02:18;12.30;99.90
19031;DHT22;9648;51.130;13.978;2022-10-15T05:04:45;12.30;99.90
19031;DHT22;9648;51.130;13.978;2022-10-15T05:07:13;12.20;99.90
19031;DHT22;9648;51.130;13.978;2022-10-15T05:09:40;12.20;99.90
19031;DHT22;9648;51.130;13.978;2022-10-15T05:12:07;12.20;99.90
19031;DHT22;9648;51.130;13.978;2022-10-15T05:14:34;12.20;99.90
19031;DHT22;9648;51.130;13.978;2022-10-15T05:17:01;12.20;99.90
19031;DHT22;9648;51.130;13.978;2022-10-15T05:19:28;12.10;99.90
19031;DHT22;9648;51.130;13.978;2022-10-15T05:21:54;12.20;99.90
19031;DHT22;9648;51.130;13.978;2022-10-15T05:24:22;12.20;99.90
19031;DHT22;9648;51.130;13.978;2022-10-15T05:26:49;12.20;99.90
19031;DHT22;9648;51.130;13.978;2022-10-15T05:29:16;12.20;99.90
19031;DHT22;9648;51.130;13.978;2022-10-15T05:31:43;12.20;99.90
19031;DHT22;9648;51.130;13.978;2022-10-15T05:34:10;12.20;99.90
19031;DHT22;9648;51.130;13.978;2022-10-15T05:36:37;12.20;99.90
19031;DHT22;9648;51.130;13.978;2022-10-15T05:39:04;12.20;99.90
19031;DHT22;9648;51.130;13.978;2022-10-15T05:41:36;12.20;99.90
19031;DHT22;9648;51.130;13.978;2022-10-15T05:44:03;12.30;99.90
19031;DHT22;9648;51.130;13.978;2022-10-15T05:46:30;12.30;99.90
19031;DHT22;9648;51.130;13.978;2022-10-15T05:48:57;12.30;99.90
19031;DHT22;9648;51.130;13.978;2022-10-15T05:51:25;12.30;99.90
19031;DHT22;9648;51.130;13.978;2022-10-15T05:53:53;12.40;99.90
19031;DHT22;9648;51.130;13.978;2022-10-15T05:56:20;12.40;99.90
19031;DHT22;9648;51.130;13.978;2022-10-15T05:58:48;12.40;99.90
19031;DHT22;9648;51.130;13.978;2022-10-15T06:01:15;12.40;99.90
19031;DHT22;9648;51.130;13.978;2022-10-15T06:03:42;12.40;99.90
19031;DHT22;9648;51.130;13.978;2022-10-15T06:06:13;12.40;99.90
19031;DHT22;9648;51.130;13.978;2022-10-15T06:08:40;12.40;99.90
19031;DHT22;9648;51.130;13.978;2022-10-15T06:11:07;12.40;99.90
19031;DHT22;9648;51.130;13.978;2022-10-15T06:13:35;12.40;99.90
19031;DHT22;9648;51.130;13.978;2022-10-15T06:16:04;12.40;99.90
19031;DHT22;9648;51.130;13.978;2022-10-15T06:18:32;12.40;99.90
19031;DHT22;9648;51.130;13.978;2022-10-15T06:20:58;12.40;99.90
19031;DHT22;9648;51.130;13.978;2022-10-15T06:23:25;12.40;99.90
19031;DHT22;9648;51.130;13.978;2022-10-15T06:25:52;12.50;99.90
19031;DHT22;9648;51.130;13.978;2022-10-15T06:28:19;12.50;99.90
19031;DHT22;9648;51.130;13.978;2022-10-15T06:30:46;12.50;99.90
19031;DHT22;9648;51.130;13.978;2022-10-15T06:33:14;12.50;99.90
19031;DHT22;9648;51.130;13.978;2022-10-15T06:35:41;12.60;99.90
19031;DHT22;9648;51.130;13.978;2022-10-15T06:38:08;12.60;99.90
19031;DHT22;9648;51.130;13.978;2022-10-15T06:40:36;12.70;99.90
19031;DHT22;9648;51.130;13.978;2022-10-15T06:43:04;12.80;99.90
19031;DHT22;9648;51.130;13.978;2022-10-15T06:45:32;12.90;99.90
19031;DHT22;9648;51.130;13.978;2022-10-15T06:48:01;13.00;99.90
19031;DHT22;9648;51.130;13.978;2022-10-15T06:50:30;13.10;99.90
19031;DHT22;9648;51.130;13.978;2022-10-15T06:52:57;13.10;99.90
19031;DHT22;9648;51.130;13.978;2022-10-15T06:55:24;13.10;99.90
19031;DHT22;9648;51.130;13.978;2022-10-15T06:57:51;13.10;99.90
19031;DHT22;9648;51.130;13.978;2022-10-15T07:00:18;13.20;99.90
19031;DHT22;9648;51.130;13.978;2022-10-15T07:02:44;13.20;99.90
19031;DHT22;9648;51.130;13.978;2022-10-15T07:05:11;13.30;99.90
19031;DHT22;9648;51.130;13.978;2022-10-15T07:07:39;13.40;99.90
19031;DHT22;9648;51.130;13.978;2022-10-15T07:10:07;13.40;99.90
19031;DHT22;9648;51.130;13.978;2022-10-15T07:12:34;13.50;99.90
19031;DHT22;9648;51.130;13.978;2022-10-15T07:15:01;13.50;99.90
19031;DHT22;9648;51.130;13.978;2022-10-15T07:17:28;13.60;99.90
19031;DHT22;9648;51.130;13.978;2022-10-15T07:19:56;13.60;99.90
19031;DHT22;9648;51.130;13.978;2022-10-15T07:22:22;13.60;99.90
19031;DHT22;9648;51.130;13.978;2022-10-15T07:24:51;13.70;99.90
19031;DHT22;9648;51.130;13.978;2022-10-15T07:27:18;13.60;99.90
19031;DHT22;9648;51.130;13.978;2022-10-15T07:29:45;13.60;99.90
19031;DHT22;9648;51.130;13.978;2022-10-15T07:32:12;13.60;99.90
19031;DHT22;9648;51.130;13.978;2022-10-15T07:34:38;13.60;99.90
19031;DHT22;9648;51.130;13.978;2022-10-15T07:37:05;13.60;99.90
19031;DHT22;9648;51.130;13.978;2022-10-15T07:39:32;13.60;99.90
19031;DHT22;9648;51.130;13.978;2022-10-15T07:42:00;13.80;99.90
19031;DHT22;9648;51.130;13.978;2022-10-15T07:44:27;13.90;99.90
19031;DHT22;9648;51.130;13.978;2022-10-15T07:46:54;14.10;99.90
19031;DHT22;9648;51.130;13.978;2022-10-15T07:49:21;14.10;99.90
19031;DHT22;9648;51.130;13.978;2022-10-15T07:51:47;14.20;99.90
19031;DHT22;9648;51.130;13.978;2022-10-15T07:54:15;14.40;99.90
19031;DHT22;9648;51.130;13.978;2022-10-15T07:56:42;14.60;99.90
19031;DHT22;9648;51.130;13.978;2022-10-15T07:59:13;14.70;99.90
19031;DHT22;9648;51.130;13.978;2022-10-15T08:01:41;14.80;99.90
19031;DHT22;9648;51.130;13.978;2022-10-15T08:04:08;15.00;99.90
19031;DHT22;9648;51.130;13.978;2022-10-15T08:06:35;15.10;99.90
19031;DHT22;9648;51.130;13.978;2022-10-15T08:09:04;15.20;99.90
19031;DHT22;9648;51.130;13.978;2022-10-15T08:11:30;15.50;99.90
19031;DHT22;9648;51.130;13.978;2022-10-15T08:13:58;15.50;99.90
19031;DHT22;9648;51.130;13.978;2022-10-15T08:16:26;15.50;99.90
19031;DHT22;9648;51.130;13.978;2022-10-15T08:18:53;15.40;99.90
19031;DHT22;9648;51.130;13.978;2022-10-15T08:21:20;15.30;99.90
19031;DHT22;9648;51.130;13.978;2022-10-15T08:23:46;15.30;99.90
19031;DHT22;9648;51.130;13.978;2022-10-15T08:26:13;15.20;99.90
19031;DHT22;9648;51.130;13.978;2022-10-15T08:28:40;15.20;99.90
19031;DHT22;9648;51.130;13.978;2022-10-15T08:31:07;15.00;99.90
19031;DHT22;9648;51.130;13.978;2022-10-15T08:33:36;15.00;99.90
19031;DHT22;9648;51.130;13.978;2022-10-15T08:36:04;15.00;99.90
19031;DHT22;9648;51.130;13.978;2022-10-15T08:38:31;15.00;99.90
19031;DHT22;9648;51.130;13.978;2022-10-15T08:41:00;15.00;99.90
19031;DHT22;9648;51.130;13.978;2022-10-15T08:43:31;15.10;99.90
19031;DHT22;9648;51.130;13.978;2022-10-15T08:46:03;15.10;99.90
19031;DHT22;9648;51.130;13.978;2022-10-15T08:48:36;15.20;99.90
19031;DHT22;9648;51.130;13.978;2022-10-15T08:51:07;15.30;99.90
19031;DHT22;9648;51.130;13.978;2022-10-15T08:53:38;15.40;99.90
19031;DHT22;9648;51.130;13.978;2022-10-15T08:56:12;15.50;99.90
19031;DHT22;9648;51.130;13.978;2022-10-15T08:58:45;15.70;99.90
19031;DHT22;9648;51.130;13.978;2022-10-15T09:01:21;15.90;99.90
19031;DHT22;9648;51.130;13.978;2022-10-15T09:03:56;16.00;99.90
19031;DHT22;9648;51.130;13.978;2022-10-15T09:06:29;16.10;99.90
19031;DHT22;9648;51.130;13.978;2022-10-15T09:09:04;16.10;99.90
19031;DHT22;9648;51.130;13.978;2022-10-15T09:11:42;16.10;99.90
19031;DHT22;9648;51.130;13.978;2022-10-15T09:14:13;16.00;99.90
19031;DHT22;9648;51.130;13.978;2022-10-15T09:16:43;15.90;99.90
19031;DHT22;9648;51.130;13.978;2022-10-15T09:19:16;15.90;99.90
19031;DHT22;9648;51.130;13.978;2022-10-15T09:21:44;15.80;99.90
19031;DHT22;9648;51.130;13.978;2022-10-15T09:24:18;15.70;99.90
19031;DHT22;9648;51.130;13.978;2022-10-15T09:26:52;15.70;99.90
19031;DHT22;9648;51.130;13.978;2022-10-15T09:29:28;15.70;99.90
19031;DHT22;9648;51.130;13.978;2022-10-15T09:32:03;15.80;99.90
19031;DHT22;9648;51.130;13.978;2022-10-15T09:34:38;16.00;99.90
19031;DHT22;9648;51.130;13.978;2022-10-15T09:37:13;16.20;99.90
19031;DHT22;9648;51.130;13.978;2022-10-15T09:40:02;16.40;99.90
19031;DHT22;9648;51.130;13.978;2022-10-15T09:42:37;16.50;99.90
19031;DHT22;9648;51.130;13.978;2022-10-15T09:45:09;16.50;99.90
19031;DHT22;9648;51.130;13.978;2022-10-15T09:47:38;16.50;99.90
19031;DHT22;9648;51.130;13.978;2022-10-15T09:50:09;16.40;99.90
19031;DHT22;9648;51.130;13.978;2022-10-15T09:52:51;16.40;99.90
19031;DHT22;9648;51.130;13.978;2022-10-15T09:55:34;16.40;99.90
19031;DHT22;9648;51.130;13.978;2022-10-15T09:58:05;16.40;99.90
19031;DHT22;9648;51.130;13.978;2022-10-15T10:00:58;16.20;99.90
19031;DHT22;9648;51.130;13.978;2022-10-15T10:03:27;16.20;99.90
19031;DHT22;9648;51.130;13.978;2022-10-15T10:06:04;16.00;99.90
19031;DHT22;9648;51.130;13.978;2022-10-15T10:08:34;16.00;99.90
19031;DHT22;9648;51.130;13.978;2022-10-15T10:11:05;16.00;99.90
19031;DHT22;9648;51.130;13.978;2022-10-15T10:13:39;16.00;99.90
19031;DHT22;9648;51.130;13.978;2022-10-15T10:16:09;16.10;99.90
19031;DHT22;9648;51.130;13.978;2022-10-15T10:18:36;16.20;99.90
19031;DHT22;9648;51.130;13.978;2022-10-15T10:21:08;16.20;99.90
19031;DHT22;9648;51.130;13.978;2022-10-15T10:23:46;16.30;99.90
19031;DHT22;9648;51.130;13.978;2022-10-15T10:26:13;16.30;99.90
19031;DHT22;9648;51.130;13.978;2022-10-15T10:28:43;16.40;99.90
19031;DHT22;9648;51.130;13.978;2022-10-15T10:31:12;16.40;99.90
19031;DHT22;9648;51.130;13.978;2022-10-15T10:33:43;16.50;99.90
19031;DHT22;9648;51.130;13.978;2022-10-15T10:36:25;16.60;99.90
19031;DHT22;9648;51.130;13.978;2022-10-15T10:38:59;16.70;99.90
19031;DHT22;9648;51.130;13.978;2022-10-15T10:41:48;16.90;99.90
19031;DHT22;9648;51.130;13.978;2022-10-15T10:44:24;16.90;99.90
19031;DHT22;9648;51.130;13.978;2022-10-15T10:47:07;16.90;99.90
19031;DHT22;9648;51.130;13.978;2022-10-15T10:49:36;16.90;99.90
19031;DHT22;9648;51.130;13.978;2022-10-15T10:52:10;16.80;99.90
19031;DHT22;9648;51.130;13.978;2022-10-15T10:54:44;16.90;99.90
19031;DHT22;9648;51.130;13.978;2022-10-15T10:57:13;16.90;99.90
19031;DHT22;9648;51.130;13.978;2022-10-15T10:59:48;16.80;99.90
19031;DHT22;9648;51.130;13.978;2022-10-15T11:02:15;16.80;99.90
19031;DHT22;9648;51.130;13.978;2022-10-15T11:04:42;16.80;99.90
19031;DHT22;9648;51.130;13.978;2022-10-15T11:07:17;16.80;99.90
19031;DHT22;9648;51.130;13.978;2022-10-15T11:09:53;16.80;99.90
19031;DHT22;9648;51.130;13.978;2022-10-15T11:12:43;16.80;99.90
19031;DHT22;9648;51.130;13.978;2022-10-15T11:15:25;16.70;99.90
19031;DHT22;9648;51.130;13.978;2022-10-15T11:18:04;16.80;99.90
19031;DHT22;9648;51.130;13.978;2022-10-15T11:20:44;16.70;99.90
19031;DHT22;9648;51.130;13.978;2022-10-15T11:23:24;16.70;99.90
19031;DHT22;9648;51.130;13.978;2022-10-15T11:26:00;16.80;99.90
19031;DHT22;9648;51.130;13.978;2022-10-15T11:28:44;17.00;99.90
19031;DHT22;9648;51.130;13.978;2022-10-15T11:31:17;17.10;99.90
19031;DHT22;9648;51.130;13.978;2022-10-15T11:33:57;17.30;99.90
19031;DHT22;9648;51.130;13.978;2022-10-15T11:36:35;17.40;99.90
19031;DHT22;9648;51.130;13.978;2022-10-15T11:42:14;17.50;99.90
19031;DHT22;9648;51.130;13.978;2022-10-15T11:45:00;17.60;99.90
19031;DHT22;9648;51.130;13.978;2022-10-15T11:47:35;17.50;99.90
19031;DHT22;9648;51.130;13.978;2022-10-15T11:50:13;17.50;99.90
19031;DHT22;9648;51.130;13.978;2022-10-15T11:53:07;17.40;99.90
19031;DHT22;9648;51.130;13.978;2022-10-15T11:55:40;17.30;99.90
19031;DHT22;9648;51.130;13.978;2022-10-15T11:58:12;17.20;99.90
19031;DHT22;9648;51.130;13.978;2022-10-15T12:00:44;17.20;99.90
19031;DHT22;9648;51.130;13.978;2022-10-15T12:03:15;17.20;99.90
19031;DHT22;9648;51.130;13.978;2022-10-15T12:05:47;17.20;99.90
19031;DHT22;9648;51.130;13.978;2022-10-15T12:08:16;17.20;99.90
19031;DHT22;9648;51.130;13.978;2022-10-15T12:11:03;17.20;99.90
19031;DHT22;9648;51.130;13.978;2022-10-15T12:13:37;17.30;99.90
19031;DHT22;9648;51.130;13.978;2022-10-15T12:16:15;17.20;99.90
19031;DHT22;9648;51.130;13.978;2022-10-15T12:18:48;17.20;99.90
19031;DHT22;9648;51.130;13.978;2022-10-15T12:21:33;17.20;99.90
19031;DHT22;9648;51.130;13.978;2022-10-15T12:24:02;17.40;99.90
19031;DHT22;9648;51.130;13.978;2022-10-15T12:26:33;17.50;99.90
19031;DHT22;9648;51.130;13.978;2022-10-15T12:29:02;17.60;99.90
19031;DHT22;9648;51.130;13.978;2022-10-15T12:31:44;17.70;99.90
19031;DHT22;9648;51.130;13.978;2022-10-15T12:34:28;17.70;99.90
19031;DHT22;9648;51.130;13.978;2022-10-15T12:37:00;17.70;99.90
19031;DHT22;9648;51.130;13.978;2022-10-15T12:39:28;17.70;99.90
19031;DHT22;9648;51.130;13.978;2022-10-15T12:41:57;17.60;99.90
19031;DHT22;9648;51.130;13.978;2022-10-15T12:44:26;17.50;99.90
19031;DHT22;9648;51.130;13.978;2022-10-15T12:46:54;17.40;99.90
19031;DHT22;9648;51.130;13.978;2022-10-15T12:49:44;17.40;99.90
19031;DHT22;9648;51.130;13.978;2022-10-15T12:55:22;17.20;99.90
19031;DHT22;9648;51.130;13.978;2022-10-15T12:57:55;17.20;99.90
19031;DHT22;9648;51.130;13.978;2022-10-15T13:00:35;17.10;99.90
19031;DHT22;9648;51.130;13.978;2022-10-15T13:06:25;16.90;99.90
19031;DHT22;9648;51.130;13.978;2022-10-15T13:09:05;16.80;99.90
19031;DHT22;9648;51.130;13.978;2022-10-15T13:11:36;16.70;99.90
19031;DHT22;9648;51.130;13.978;2022-10-15T13:14:19;16.70;99.90
19031;DHT22;9648;51.130;13.978;2022-10-15T13:16:47;16.80;99.90
19031;DHT22;9648;51.130;13.978;2022-10-15T13:19:18;16.80;99.90
19031;DHT22;9648;51.130;13.978;2022-10-15T13:21:50;17.00;99.90
19031;DHT22;9648;51.130;13.978;2022-10-15T13:24:18;17.20;99.90
19031;DHT22;9648;51.130;13.978;2022-10-15T13:26:46;17.50;99.90
19031;DHT22;9648;51.130;13.978;2022-10-15T13:29:16;17.70;99.90
19031;DHT22;9648;51.130;13.978;2022-10-15T13:31:45;17.80;99.90
19031;DHT22;9648;51.130;13.978;2022-10-15T13:34:20;17.70;99.90
19031;DHT22;9648;51.130;13.978;2022-10-15T13:36:49;17.60;99.90
19031;DHT22;9648;51.130;13.978;2022-10-15T13:39:23;17.40;99.90
19031;DHT22;9648;51.130;13.978;2022-10-15T13:42:02;17.20;99.90
19031;DHT22;9648;51.130;13.978;2022-10-15T13:44:33;17.10;99.90
19031;DHT22;9648;51.130;13.978;2022-10-15T13:47:00;17.00;99.90
19031;DHT22;9648;51.130;13.978;2022-10-15T13:49:27;17.00;99.90
19031;DHT22;9648;51.130;13.978;2022-10-15T13:51:54;17.00;99.90
19031;DHT22;9648;51.130;13.978;2022-10-15T13:54:23;17.00;99.90
19031;DHT22;9648;51.130;13.978;2022-10-15T13:56:52;17.00;99.90
19031;DHT22;9648;51.130;13.978;2022-10-15T13:59:21;16.90;99.90
19031;DHT22;9648;51.130;13.978;2022-10-15T14:01:52;16.90;99.90
19031;DHT22;9648;51.130;13.978;2022-10-15T14:04:21;16.90;99.90
19031;DHT22;9648;51.130;13.978;2022-10-15T14:06:54;16.90;99.90
19031;DHT22;9648;51.130;13.978;2022-10-15T14:09:29;16.80;99.90
19031;DHT22;9648;51.130;13.978;2022-10-15T14:11:56;16.80;99.90
19031;DHT22;9648;51.130;13.978;2022-10-15T14:14:28;16.70;99.90
19031;DHT22;9648;51.130;13.978;2022-10-15T14:16:58;16.60;99.90
19031;DHT22;9648;51.130;13.978;2022-10-15T14:19:26;16.60;99.90
19031;DHT22;9648;51.130;13.978;2022-10-15T14:21:55;16.50;99.90
19031;DHT22;9648;51.130;13.978;2022-10-15T14:24:28;16.50;99.90
19031;DHT22;9648;51.130;13.978;2022-10-15T14:27:02;16.60;99.90
19031;DHT22;9648;51.130;13.978;2022-10-15T14:29:37;16.70;99.90
19031;DHT22;9648;51.130;13.978;2022-10-15T14:32:20;16.70;99.90
19031;DHT22;9648;51.130;13.978;2022-10-15T14:34:48;16.70;99.90
19031;DHT22;9648;51.130;13.978;2022-10-15T14:37:31;16.60;99.90
19031;DHT22;9648;51.130;13.978;2022-10-15T14:40:12;16.60;99.90
19031;DHT22;9648;51.130;13.978;2022-10-15T14:42:41;16.60;99.90
19031;DHT22;9648;51.130;13.978;2022-10-15T14:45:17;16.60;99.90
19031;DHT22;9648;51.130;13.978;2022-10-15T14:47:47;16.60;99.90
19031;DHT22;9648;51.130;13.978;2022-10-15T14:50:15;16.60;99.90
19031;DHT22;9648;51.130;13.978;2022-10-15T14:52:44;16.60;99.90
19031;DHT22;9648;51.130;13.978;2022-10-15T14:55:18;16.50;99.90
19031;DHT22;9648;51.130;13.978;2022-10-15T14:57:49;16.40;99.90
19031;DHT22;9648;51.130;13.978;2022-10-15T15:00:23;16.40;99.90
19031;DHT22;9648;51.130;13.978;2022-10-15T15:02:53;16.40;99.90
19031;DHT22;9648;51.130;13.978;2022-10-15T15:05:22;16.50;99.90
19031;DHT22;9648;51.130;13.978;2022-10-15T15:07:49;16.50;99.90
19031;DHT22;9648;51.130;13.978;2022-10-15T15:10:17;16.50;99.90
19031;DHT22;9648;51.130;13.978;2022-10-15T15:12:47;16.50;99.90
19031;DHT22;9648;51.130;13.978;2022-10-15T15:15:18;16.40;99.90
19031;DHT22;9648;51.130;13.978;2022-10-15T15:17:47;16.40;99.90
19031;DHT22;9648;51.130;13.978;2022-10-15T15:20:15;16.40;99.90
19031;DHT22;9648;51.130;13.978;2022-10-15T15:22:45;16.30;99.90
19031;DHT22;9648;51.130;13.978;2022-10-15T15:25:15;16.30;99.90
19031;DHT22;9648;51.130;13.978;2022-10-15T15:27:42;16.20;99.90
19031;DHT22;9648;51.130;13.978;2022-10-15T15:30:14;16.20;99.90
19031;DHT22;9648;51.130;13.978;2022-10-15T15:32:42;16.20;99.90
19031;DHT22;9648;51.130;13.978;2022-10-15T15:35:20;16.10;99.90
19031;DHT22;9648;51.130;13.978;2022-10-15T15:37:48;16.10;99.90
19031;DHT22;9648;51.130;13.978;2022-10-15T15:40:15;16.00;99.90
19031;DHT22;9648;51.130;13.978;2022-10-15T15:42:43;15.90;99.90
19031;DHT22;9648;51.130;13.978;2022-10-15T15:45:16;15.80;99.90
19031;DHT22;9648;51.130;13.978;2022-10-15T15:47:44;15.70;99.90
19031;DHT22;9648;51.130;13.978;2022-10-15T15:50:11;15.60;99.90
19031;DHT22;9648;51.130;13.978;2022-10-15T15:52:39;15.50;99.90
19031;DHT22;9648;51.130;13.978;2022-10-15T15:55:07;15.40;99.90
19031;DHT22;9648;51.130;13.978;2022-10-15T15:57:35;15.40;99.90
19031;DHT22;9648;51.130;13.978;2022-10-15T16:00:04;15.40;99.90